createdAt,value
2023-05-07T00:00:38.965Z,30.78
2023-05-07T00:01:41.272Z,30.57
2023-05-07T00:02:44.297Z,30.99
2023-05-07T00:03:46.374Z,30.75
2023-05-07T00:04:48.772Z,30.51
2023-05-07T00:05:50.818Z,30.77
2023-05-07T00:06:52.670Z,30.98
2023-05-07T00:07:54.578Z,30.90
2023-05-07T00:08:58.817Z,30.62
2023-05-07T00:10:00.659Z,30.54
2023-05-07T00:11:02.616Z,30.73
2023-05-07T00:12:04.719Z,30.64
2023-05-07T00:13:06.647Z,30.47
2023-05-07T00:14:08.660Z,30.74
2023-05-07T00:15:11.711Z,30.77
2023-05-07T00:16:13.968Z,30.45
2023-05-07T00:17:15.924Z,30.81
2023-05-07T00:18:17.824Z,31.15
2023-05-07T00:19:19.782Z,31.01
2023-05-07T00:20:21.904Z,30.88
2023-05-07T00:21:23.903Z,30.85
2023-05-07T00:22:26.003Z,30.62
2023-05-07T00:23:28.136Z,30.91
2023-05-07T00:24:29.981Z,30.81
2023-05-07T00:25:31.935Z,30.74
2023-05-07T00:26:34.234Z,30.97
2023-05-07T00:27:36.118Z,30.64
2023-05-07T00:28:37.972Z,31.12
2023-05-07T00:29:40.290Z,30.56
2023-05-07T00:30:42.141Z,30.82
2023-05-07T00:31:44.110Z,31.08
2023-05-07T00:32:46.703Z,31.00
2023-05-07T00:33:48.724Z,30.94
2023-05-07T00:34:52.026Z,30.79
2023-05-07T00:35:55.387Z,30.94
2023-05-07T00:36:57.497Z,30.83
2023-05-07T00:37:59.732Z,30.70
2023-05-07T00:39:04.487Z,30.50
2023-05-07T00:40:08.923Z,31.05
2023-05-07T00:41:11.322Z,31.17
2023-05-07T00:42:13.284Z,31.09
2023-05-07T00:43:16.105Z,31.11
2023-05-07T00:44:19.269Z,30.89
2023-05-07T00:45:21.109Z,30.63
2023-05-07T00:46:24.310Z,31.09
2023-05-07T00:47:27.330Z,30.93
2023-05-07T00:48:29.443Z,30.81
2023-05-07T00:49:42.557Z,30.54
2023-05-07T00:50:46.836Z,31.27
2023-05-07T00:51:49.065Z,30.61
2023-05-07T00:52:51.336Z,30.76
2023-05-07T00:53:53.557Z,31.11
2023-05-07T00:54:56.198Z,31.11
2023-05-07T00:55:58.600Z,30.83
2023-05-07T00:57:00.475Z,31.05
2023-05-07T00:58:02.519Z,30.82
2023-05-07T00:59:04.731Z,31.16
2023-05-07T01:00:10.036Z,30.92
2023-05-07T01:01:12.504Z,31.22
2023-05-07T01:02:14.533Z,31.21
2023-05-07T01:03:16.983Z,31.07
2023-05-07T01:04:19.294Z,30.85
2023-05-07T01:05:25.955Z,31.06
2023-05-07T01:06:31.220Z,30.63
2023-05-07T01:07:35.734Z,30.74
2023-05-07T01:08:40.728Z,31.20
2023-05-07T01:09:42.673Z,30.72
2023-05-07T01:10:47.012Z,31.00
2023-05-07T01:11:51.337Z,30.77
2023-05-07T01:12:55.116Z,30.93
2023-05-07T01:14:00.370Z,31.10
2023-05-07T01:15:03.999Z,31.02
2023-05-07T01:16:06.552Z,30.78
2023-05-07T01:17:09.444Z,31.15
2023-05-07T01:18:11.823Z,31.11
2023-05-07T01:19:17.163Z,30.98
2023-05-07T01:20:20.169Z,31.13
2023-05-07T01:21:27.722Z,30.97
2023-05-07T01:22:38.017Z,31.20
2023-05-07T01:23:41.766Z,30.84
2023-05-07T01:24:44.440Z,31.14
2023-05-07T01:25:56.474Z,31.15
2023-05-07T01:26:58.385Z,31.17
2023-05-07T01:28:03.440Z,31.32
2023-05-07T01:29:05.363Z,31.25
2023-05-07T01:30:08.320Z,30.99
2023-05-07T01:31:11.296Z,31.23
2023-05-07T01:32:16.227Z,31.37
2023-05-07T01:33:25.046Z,30.88
2023-05-07T01:34:32.366Z,31.24
2023-05-07T01:35:41.597Z,31.42
2023-05-07T01:36:46.009Z,31.37
2023-05-07T01:37:49.468Z,31.27
2023-05-07T01:38:51.601Z,31.09
2023-05-07T01:39:54.846Z,31.08
2023-05-07T01:40:58.142Z,31.36
2023-05-07T01:42:00.927Z,31.42
2023-05-07T01:43:07.280Z,31.14
2023-05-07T01:44:13.499Z,31.13
2023-05-07T01:45:15.764Z,30.97
2023-05-07T01:46:20.153Z,31.14
2023-05-07T01:47:23.678Z,31.05
2023-05-07T01:48:27.026Z,31.08
2023-05-07T01:49:29.176Z,31.13
2023-05-07T01:50:33.532Z,31.21
2023-05-07T01:51:36.576Z,31.42
2023-05-07T01:52:41.215Z,31.33
2023-05-07T01:53:44.859Z,31.18
2023-05-07T01:54:46.649Z,31.36
2023-05-07T01:55:48.545Z,31.53
2023-05-07T01:56:50.564Z,31.44
2023-05-07T01:57:52.487Z,31.53
2023-05-07T01:58:54.402Z,31.29
2023-05-07T01:59:56.636Z,31.29
2023-05-07T02:00:58.568Z,31.61
2023-05-07T02:02:00.560Z,31.14
2023-05-07T02:03:02.984Z,31.63
2023-05-07T02:04:05.338Z,31.72
2023-05-07T02:05:07.726Z,31.47
2023-05-07T02:06:09.701Z,31.45
2023-05-07T02:07:11.701Z,31.40
2023-05-07T02:08:13.600Z,31.42
2023-05-07T02:09:16.181Z,31.51
2023-05-07T02:10:20.993Z,31.63
2023-05-07T02:11:22.830Z,31.19
2023-05-07T02:12:24.838Z,31.75
2023-05-07T02:13:31.213Z,31.47
2023-05-07T02:14:33.131Z,31.67
2023-05-07T02:15:35.090Z,31.39
2023-05-07T02:16:37.431Z,31.73
2023-05-07T02:18:01.948Z,31.40
2023-05-07T02:19:04.403Z,31.22
2023-05-07T02:20:08.369Z,31.19
2023-05-07T02:21:10.366Z,31.61
2023-05-07T02:22:12.607Z,31.62
2023-05-07T02:23:14.510Z,31.66
2023-05-07T02:24:16.844Z,31.52
2023-05-07T02:25:18.986Z,31.60
2023-05-07T02:26:22.453Z,31.83
2023-05-07T02:27:24.326Z,31.57
2023-05-07T02:28:26.340Z,31.42
2023-05-07T02:29:28.244Z,31.22
2023-05-07T02:30:30.078Z,31.23
2023-05-07T02:31:32.531Z,31.65
2023-05-07T02:32:34.798Z,31.55
2023-05-07T02:33:37.598Z,31.23
2023-05-07T02:34:39.601Z,31.77
2023-05-07T02:35:41.543Z,31.75
2023-05-07T02:36:43.905Z,31.57
2023-05-07T02:37:45.783Z,31.25
2023-05-07T02:38:47.722Z,31.32
2023-05-07T02:39:49.582Z,31.56
2023-05-07T02:40:51.485Z,31.74
2023-05-07T02:41:53.323Z,31.48
2023-05-07T02:42:55.390Z,31.34
2023-05-07T02:43:57.606Z,31.39
2023-05-07T02:44:59.655Z,31.47
2023-05-07T02:46:10.472Z,31.68
2023-05-07T02:47:14.447Z,31.36
2023-05-07T02:48:16.335Z,31.43
2023-05-07T02:49:18.149Z,31.45
2023-05-07T02:50:20.054Z,31.85
2023-05-07T02:51:25.383Z,31.84
2023-05-07T02:52:28.090Z,31.32
2023-05-07T02:53:30.462Z,31.71
2023-05-07T02:54:32.837Z,31.71
2023-05-07T02:55:34.672Z,31.94
2023-05-07T02:56:36.581Z,31.90
2023-05-07T02:57:38.457Z,31.43
2023-05-07T02:58:40.404Z,31.55
2023-05-07T02:59:43.663Z,31.87
2023-05-07T03:00:45.764Z,31.40
2023-05-07T03:01:47.792Z,31.35
2023-05-07T03:02:49.813Z,31.59
2023-05-07T03:03:51.861Z,31.55
2023-05-07T03:04:54.060Z,31.48
2023-05-07T03:05:56.086Z,31.38
2023-05-07T03:06:58.001Z,31.45
2023-05-07T03:08:00.479Z,31.54
2023-05-07T03:09:02.679Z,31.45
2023-05-07T03:10:06.079Z,31.54
2023-05-07T03:11:07.973Z,31.49
2023-05-07T03:12:09.755Z,31.68
2023-05-07T03:13:11.748Z,31.83
2023-05-07T03:14:13.703Z,31.83
2023-05-07T03:15:15.849Z,31.81
2023-05-07T03:16:17.753Z,31.38
2023-05-07T03:17:19.673Z,31.60
2023-05-07T03:18:21.707Z,31.65
2023-05-07T03:19:23.861Z,31.79
2023-05-07T03:20:25.903Z,31.42
2023-05-07T03:21:27.861Z,31.44
2023-05-07T03:22:29.805Z,31.79
2023-05-07T03:23:31.666Z,31.44
2023-05-07T03:24:33.653Z,31.45
2023-05-07T03:25:35.882Z,32.05
2023-05-07T03:26:37.710Z,31.96
2023-05-07T03:27:39.681Z,31.97
2023-05-07T03:28:41.995Z,32.07
2023-05-07T03:29:44.190Z,31.91
2023-05-07T03:30:46.037Z,31.87
2023-05-07T03:31:48.043Z,31.61
2023-05-07T03:32:50.093Z,31.80
2023-05-07T03:33:57.757Z,31.70
2023-05-07T03:34:59.654Z,31.76
2023-05-07T03:36:02.351Z,31.78
2023-05-07T03:37:04.446Z,31.72
2023-05-07T03:38:06.807Z,31.95
2023-05-07T03:39:08.834Z,31.78
2023-05-07T03:40:12.232Z,32.03
2023-05-07T03:41:14.388Z,31.71
2023-05-07T03:42:16.534Z,31.98
2023-05-07T03:43:18.566Z,31.63
2023-05-07T03:44:21.087Z,31.74
2023-05-07T03:45:23.036Z,32.26
2023-05-07T03:46:27.245Z,31.55
2023-05-07T03:47:29.254Z,31.70
2023-05-07T03:48:31.231Z,32.03
2023-05-07T03:49:33.101Z,32.29
2023-05-07T03:50:35.038Z,31.72
2023-05-07T03:51:37.153Z,32.07
2023-05-07T03:52:38.992Z,32.16
2023-05-07T03:53:40.811Z,31.97
2023-05-07T03:54:42.645Z,31.76
2023-05-07T03:55:44.526Z,31.76
2023-05-07T03:56:46.456Z,31.84
2023-05-07T03:57:48.291Z,31.78
2023-05-07T03:58:50.370Z,31.98
2023-05-07T03:59:52.536Z,31.80
2023-05-07T04:00:54.736Z,31.73
2023-05-07T04:01:56.786Z,32.02
2023-05-07T04:02:59.068Z,32.04
2023-05-07T04:04:01.064Z,31.65
2023-05-07T04:05:02.986Z,31.79
2023-05-07T04:06:04.980Z,31.75
2023-05-07T04:07:06.876Z,32.06
2023-05-07T04:08:09.132Z,31.76
2023-05-07T04:09:11.444Z,31.97
2023-05-07T04:10:14.486Z,31.87
2023-05-07T04:11:16.629Z,32.00
2023-05-07T04:12:18.529Z,31.98
2023-05-07T04:13:20.688Z,32.02
2023-05-07T04:14:22.905Z,32.16
2023-05-07T04:15:25.415Z,31.62
2023-05-07T04:16:27.370Z,31.77
2023-05-07T04:17:29.363Z,31.95
2023-05-07T04:18:31.307Z,31.75
2023-05-07T04:19:34.946Z,31.76
2023-05-07T04:20:37.823Z,31.87
2023-05-07T04:21:39.839Z,31.75
2023-05-07T04:22:41.766Z,31.84
2023-05-07T04:23:43.919Z,31.84
2023-05-07T04:24:45.740Z,31.87
2023-05-07T04:25:47.657Z,31.90
2023-05-07T04:26:49.860Z,32.01
2023-05-07T04:27:51.916Z,31.99
2023-05-07T04:28:53.728Z,32.13
2023-05-07T04:29:57.095Z,32.04
2023-05-07T04:30:59.518Z,32.01
2023-05-07T04:32:01.527Z,31.98
2023-05-07T04:33:04.017Z,31.84
2023-05-07T04:34:06.493Z,31.83
2023-05-07T04:35:08.624Z,32.11
2023-05-07T04:36:10.540Z,31.59
2023-05-07T04:37:12.565Z,32.20
2023-05-07T04:38:14.454Z,32.32
2023-05-07T04:39:16.308Z,31.92
2023-05-07T04:40:18.282Z,32.21
2023-05-07T04:41:20.641Z,32.29
2023-05-07T04:42:22.519Z,32.00
2023-05-07T04:43:24.735Z,32.17
2023-05-07T04:44:26.779Z,31.93
2023-05-07T04:45:28.913Z,32.08
2023-05-07T04:46:32.637Z,32.08
2023-05-07T04:47:34.970Z,32.21
2023-05-07T04:48:37.191Z,32.14
2023-05-07T04:49:41.922Z,31.98
2023-05-07T04:50:43.888Z,32.11
2023-05-07T04:51:45.886Z,31.95
2023-05-07T04:52:47.803Z,31.85
2023-05-07T04:53:50.486Z,31.96
2023-05-07T04:54:52.271Z,32.25
2023-05-07T04:55:58.048Z,32.04
2023-05-07T04:56:59.927Z,31.93
2023-05-07T04:58:02.945Z,31.99
2023-05-07T04:59:04.872Z,31.98
2023-05-07T05:00:09.851Z,32.26
2023-05-07T05:01:12.383Z,32.22
2023-05-07T05:02:14.448Z,32.23
2023-05-07T05:03:16.815Z,32.32
2023-05-07T05:04:18.777Z,32.04
2023-05-07T05:05:20.990Z,31.90
2023-05-07T05:06:22.902Z,31.89
2023-05-07T05:07:25.329Z,32.27
2023-05-07T05:08:27.752Z,32.06
2023-05-07T05:09:29.709Z,32.28
2023-05-07T05:10:31.525Z,32.23
2023-05-07T05:11:33.631Z,32.88
2023-05-07T05:12:35.758Z,32.24
2023-05-07T05:13:37.633Z,32.48
2023-05-07T05:14:39.620Z,32.30
2023-05-07T05:15:41.672Z,32.16
2023-05-07T05:16:43.679Z,32.52
2023-05-07T05:17:45.971Z,31.81
2023-05-07T05:18:47.861Z,32.17
2023-05-07T05:19:49.677Z,32.45
2023-05-07T05:20:53.035Z,32.41
2023-05-07T05:21:54.992Z,32.33
2023-05-07T05:22:56.861Z,32.26
2023-05-07T05:23:59.737Z,32.45
2023-05-07T05:25:02.194Z,32.23
2023-05-07T05:26:04.104Z,32.35
2023-05-07T05:27:07.126Z,32.35
2023-05-07T05:28:08.960Z,32.47
2023-05-07T05:29:11.138Z,32.39
2023-05-07T05:30:13.882Z,32.58
2023-05-07T05:31:15.874Z,32.70
2023-05-07T05:32:17.731Z,32.36
2023-05-07T05:33:19.500Z,32.64
2023-05-07T05:34:21.497Z,32.74
2023-05-07T05:35:23.370Z,32.75
2023-05-07T05:36:25.275Z,32.54
2023-05-07T05:37:27.788Z,32.70
2023-05-07T05:38:29.729Z,32.90
2023-05-07T05:39:31.833Z,32.71
2023-05-07T05:40:34.348Z,32.52
2023-05-07T05:41:36.284Z,32.96
2023-05-07T05:42:38.182Z,32.78
2023-05-07T05:43:40.053Z,32.74
2023-05-07T05:44:42.024Z,32.96
2023-05-07T05:45:44.021Z,32.74
2023-05-07T05:46:46.246Z,32.89
2023-05-07T05:47:48.560Z,33.09
2023-05-07T05:48:50.485Z,32.72
2023-05-07T05:49:52.478Z,32.91
2023-05-07T05:50:54.628Z,33.15
2023-05-07T05:51:57.012Z,33.00
2023-05-07T05:53:00.417Z,32.94
2023-05-07T05:54:02.528Z,32.99
2023-05-07T05:55:04.805Z,33.21
2023-05-07T05:56:07.336Z,32.88
2023-05-07T05:57:09.568Z,33.09
2023-05-07T05:58:11.620Z,32.83
2023-05-07T05:59:13.579Z,33.21
2023-05-07T06:00:15.774Z,33.14
2023-05-07T06:01:19.799Z,33.00
2023-05-07T06:02:21.930Z,33.27
2023-05-07T06:03:24.073Z,33.01
2023-05-07T06:04:26.049Z,33.23
2023-05-07T06:05:28.262Z,33.39
2023-05-07T06:06:30.323Z,33.23
2023-05-07T06:07:32.149Z,33.46
2023-05-07T06:08:34.034Z,33.29
2023-05-07T06:09:36.045Z,33.44
2023-05-07T06:10:39.170Z,33.48
2023-05-07T06:11:42.020Z,33.28
2023-05-07T06:12:44.105Z,33.62
2023-05-07T06:13:46.014Z,33.31
2023-05-07T06:14:48.492Z,33.58
2023-05-07T06:15:50.902Z,33.33
2023-05-07T06:16:52.872Z,33.31
2023-05-07T06:17:57.106Z,33.29
2023-05-07T06:18:59.103Z,33.41
2023-05-07T06:20:01.015Z,33.50
2023-05-07T06:21:03.562Z,33.56
2023-05-07T06:22:06.819Z,33.56
2023-05-07T06:23:08.710Z,33.64
2023-05-07T06:24:11.137Z,33.49
2023-05-07T06:25:13.156Z,33.65
2023-05-07T06:26:15.029Z,33.83
2023-05-07T06:27:16.977Z,34.00
2023-05-07T06:28:19.109Z,34.01
2023-05-07T06:29:21.380Z,34.11
2023-05-07T06:30:23.465Z,33.85
2023-05-07T06:31:34.418Z,34.22
2023-05-07T06:32:36.419Z,34.19
2023-05-07T06:33:38.326Z,34.07
2023-05-07T06:34:42.132Z,34.26
2023-05-07T06:35:44.095Z,33.81
2023-05-07T06:36:46.010Z,33.70
2023-05-07T06:37:47.974Z,34.14
2023-05-07T06:38:49.916Z,33.71
2023-05-07T06:39:51.940Z,33.90
2023-05-07T06:40:56.230Z,33.90
2023-05-07T06:41:58.644Z,33.57
2023-05-07T06:43:00.788Z,33.90
2023-05-07T06:44:04.050Z,33.73
2023-05-07T06:45:06.742Z,33.64
2023-05-07T06:46:08.778Z,33.90
2023-05-07T06:47:11.353Z,33.56
2023-05-07T06:48:14.266Z,33.62
2023-05-07T06:49:16.978Z,33.68
2023-05-07T06:50:19.046Z,33.86
2023-05-07T06:51:21.092Z,33.42
2023-05-07T06:52:23.271Z,33.85
2023-05-07T06:53:25.740Z,33.68
2023-05-07T06:54:27.625Z,33.74
2023-05-07T06:55:29.798Z,33.60
2023-05-07T06:56:32.777Z,33.70
2023-05-07T06:57:34.739Z,33.45
2023-05-07T06:58:38.489Z,33.85
2023-05-07T06:59:40.624Z,33.57
2023-05-07T07:00:42.726Z,33.56
2023-05-07T07:01:45.013Z,33.50
2023-05-07T07:02:47.183Z,33.80
2023-05-07T07:03:49.108Z,33.76
2023-05-07T07:04:51.155Z,33.44
2023-05-07T07:05:54.622Z,33.57
2023-05-07T07:06:57.648Z,33.22
2023-05-07T07:07:59.558Z,33.36
2023-05-07T07:09:01.675Z,33.61
2023-05-07T07:10:05.316Z,33.55
2023-05-07T07:11:07.747Z,33.47
2023-05-07T07:12:10.026Z,33.77
2023-05-07T07:13:12.212Z,33.45
2023-05-07T07:14:14.275Z,33.54
2023-05-07T07:15:16.846Z,33.79
2023-05-07T07:16:18.809Z,33.76
2023-05-07T07:17:20.787Z,34.04
2023-05-07T07:18:22.678Z,33.38
2023-05-07T07:19:24.850Z,33.55
2023-05-07T07:20:26.780Z,33.49
2023-05-07T07:21:28.677Z,33.57
2023-05-07T07:22:30.613Z,33.39
2023-05-07T07:23:32.524Z,33.33
2023-05-07T07:24:34.503Z,33.33
2023-05-07T07:25:36.542Z,33.63
2023-05-07T07:26:38.419Z,33.40
2023-05-07T07:27:41.096Z,33.55
2023-05-07T07:28:47.046Z,33.37
2023-05-07T07:29:49.203Z,33.52
2023-05-07T07:30:51.201Z,33.50
2023-05-07T07:31:53.491Z,33.27
2023-05-07T07:32:59.388Z,33.57
2023-05-07T07:34:01.300Z,33.60
2023-05-07T07:35:03.416Z,33.29
2023-05-07T07:36:07.709Z,33.53
2023-05-07T07:37:09.793Z,33.67
2023-05-07T07:38:11.781Z,33.35
2023-05-07T07:39:14.431Z,33.61
2023-05-07T07:40:16.757Z,33.85
2023-05-07T07:41:18.642Z,33.55
2023-05-07T07:42:20.634Z,33.51
2023-05-07T07:43:22.548Z,33.41
2023-05-07T07:44:24.634Z,33.19
2023-05-07T07:45:26.662Z,33.29
2023-05-07T07:46:28.670Z,33.43
2023-05-07T07:47:30.914Z,33.68
2023-05-07T07:48:32.910Z,33.25
2023-05-07T07:49:35.161Z,33.01
2023-05-07T07:50:45.498Z,33.54
2023-05-07T07:51:48.223Z,32.98
2023-05-07T07:52:51.046Z,33.26
2023-05-07T07:53:52.958Z,32.94
2023-05-07T07:54:54.872Z,32.81
2023-05-07T07:55:59.331Z,33.33
2023-05-07T07:57:02.499Z,33.25
2023-05-07T07:58:04.403Z,33.00
2023-05-07T07:59:06.347Z,33.12
2023-05-07T08:00:09.409Z,33.00
2023-05-07T08:01:13.275Z,32.81
2023-05-07T08:02:15.276Z,33.03
2023-05-07T08:03:17.690Z,32.84
2023-05-07T08:04:19.884Z,33.25
2023-05-07T08:05:21.975Z,33.26
2023-05-07T08:06:24.132Z,33.31
2023-05-07T08:07:26.045Z,33.02
2023-05-07T08:08:28.036Z,33.20
2023-05-07T08:09:29.910Z,32.86
2023-05-07T08:10:36.026Z,32.99
2023-05-07T08:11:38.139Z,32.99
2023-05-07T08:12:40.257Z,33.32
2023-05-07T08:13:42.689Z,33.29
2023-05-07T08:14:45.041Z,32.87
2023-05-07T08:15:47.095Z,33.33
2023-05-07T08:16:49.172Z,33.30
2023-05-07T08:17:51.075Z,33.37
2023-05-07T08:18:53.011Z,33.37
2023-05-07T08:19:54.905Z,32.82
2023-05-07T08:20:57.044Z,33.14
2023-05-07T08:21:58.988Z,33.26
2023-05-07T08:23:01.086Z,33.00
2023-05-07T08:24:03.259Z,33.04
2023-05-07T08:25:05.754Z,33.15
2023-05-07T08:26:09.490Z,32.84
2023-05-07T08:27:11.372Z,33.10
2023-05-07T08:28:13.437Z,32.85
2023-05-07T08:29:15.487Z,32.66
2023-05-07T08:30:17.433Z,33.21
2023-05-07T08:31:19.429Z,33.19
2023-05-07T08:32:21.802Z,33.02
2023-05-07T08:33:23.739Z,32.63
2023-05-07T08:34:25.857Z,32.95
2023-05-07T08:35:28.980Z,33.15
2023-05-07T08:36:30.919Z,33.00
2023-05-07T08:37:33.213Z,33.09
2023-05-07T08:38:35.362Z,32.99
2023-05-07T08:39:37.220Z,32.79
2023-05-07T08:40:41.905Z,33.34
2023-05-07T08:41:47.816Z,32.54
2023-05-07T08:42:52.802Z,32.72
2023-05-07T08:43:59.174Z,32.64
2023-05-07T08:45:02.164Z,33.03
2023-05-07T08:46:09.480Z,33.21
2023-05-07T08:47:12.159Z,33.03
2023-05-07T08:48:18.728Z,33.12
2023-05-07T08:49:21.646Z,32.94
2023-05-07T08:50:23.968Z,33.03
2023-05-07T08:51:25.844Z,32.56
2023-05-07T08:52:28.557Z,33.09
2023-05-07T08:53:30.941Z,32.77
2023-05-07T08:54:34.410Z,33.28
2023-05-07T08:55:36.361Z,32.77
2023-05-07T08:56:38.331Z,33.40
2023-05-07T08:57:40.697Z,33.14
2023-05-07T08:58:46.308Z,33.67
2023-05-07T08:59:48.242Z,33.81
2023-05-07T09:00:52.689Z,33.33
2023-05-07T09:01:54.659Z,33.67
2023-05-07T09:02:57.163Z,33.77
2023-05-07T09:03:59.356Z,33.80
2023-05-07T09:05:01.491Z,33.79
2023-05-07T09:06:03.509Z,33.90
2023-05-07T09:07:06.559Z,33.87
2023-05-07T09:08:09.276Z,33.90
2023-05-07T09:09:18.749Z,33.77
2023-05-07T09:10:22.271Z,34.11
2023-05-07T09:11:25.155Z,34.28
2023-05-07T09:12:27.064Z,33.80
2023-05-07T09:13:30.543Z,33.86
2023-05-07T09:14:32.448Z,34.26
2023-05-07T09:15:34.389Z,33.70
2023-05-07T09:16:36.509Z,33.77
2023-05-07T09:17:38.589Z,33.78
2023-05-07T09:18:44.595Z,33.76
2023-05-07T09:19:47.181Z,33.78
2023-05-07T09:20:49.261Z,34.03
2023-05-07T09:21:58.473Z,33.94
2023-05-07T09:23:00.457Z,34.49
2023-05-07T09:24:02.395Z,34.27
2023-05-07T09:25:05.706Z,34.45
2023-05-07T09:26:12.738Z,33.90
2023-05-07T09:27:14.712Z,34.18
2023-05-07T09:28:16.693Z,34.16
2023-05-07T09:29:19.244Z,34.00
2023-05-07T09:30:21.072Z,34.55
2023-05-07T09:31:24.551Z,34.36
2023-05-07T09:32:28.296Z,34.02
2023-05-07T09:33:31.410Z,34.23
2023-05-07T09:34:34.123Z,33.82
2023-05-07T09:35:36.164Z,34.22
2023-05-07T09:36:38.225Z,34.05
2023-05-07T09:37:42.155Z,34.18
2023-05-07T09:38:44.051Z,34.19
2023-05-07T09:39:49.084Z,34.42
2023-05-07T09:41:04.300Z,34.24
2023-05-07T09:42:06.713Z,34.00
2023-05-07T09:43:13.834Z,34.17
2023-05-07T09:44:16.348Z,34.23
2023-05-07T09:45:25.973Z,34.41
2023-05-07T09:46:33.537Z,34.05
2023-05-07T09:47:40.871Z,35.05
2023-05-07T09:48:45.200Z,34.66
2023-05-07T09:49:49.623Z,34.24
2023-05-07T09:50:59.529Z,34.16
2023-05-07T09:52:04.014Z,34.27
2023-05-07T09:53:06.914Z,34.02
2023-05-07T09:54:09.272Z,34.48
2023-05-07T09:55:13.226Z,34.54
2023-05-07T09:56:17.461Z,34.23
2023-05-07T09:57:21.700Z,34.01
2023-05-07T09:58:26.576Z,34.13
2023-05-07T09:59:30.818Z,34.34
2023-05-07T10:00:33.922Z,34.38
2023-05-07T10:01:38.576Z,34.24
2023-05-07T10:02:47.556Z,34.20
2023-05-07T10:03:53.820Z,33.87
2023-05-07T10:04:57.302Z,33.81
2023-05-07T10:06:00.873Z,34.19
2023-05-07T10:07:04.725Z,33.76
2023-05-07T10:08:07.844Z,33.92
2023-05-07T10:09:10.796Z,34.11
2023-05-07T10:10:13.780Z,34.28
2023-05-07T10:11:16.683Z,33.93
2023-05-07T10:12:19.782Z,34.24
2023-05-07T10:13:22.476Z,34.06
2023-05-07T10:14:26.017Z,34.12
2023-05-07T10:15:29.983Z,34.18
2023-05-07T10:16:37.836Z,33.96
2023-05-07T10:17:41.055Z,33.79
2023-05-07T10:18:44.221Z,33.83
2023-05-07T10:19:46.279Z,34.06
2023-05-07T10:20:49.273Z,34.27
2023-05-07T10:21:58.041Z,34.02
2023-05-07T10:23:00.958Z,34.15
2023-05-07T10:24:15.636Z,33.89
2023-05-07T10:25:26.482Z,34.02
2023-05-07T10:26:32.301Z,34.11
2023-05-07T10:27:35.323Z,33.82
2023-05-07T10:28:45.318Z,33.75
2023-05-07T10:30:08.916Z,33.92
2023-05-07T10:31:31.481Z,33.94
2023-05-07T10:32:53.954Z,33.75
2023-05-07T10:33:59.075Z,33.87
2023-05-07T10:35:07.689Z,33.96
2023-05-07T10:36:09.931Z,33.39
2023-05-07T10:37:12.908Z,33.73
2023-05-07T10:38:15.095Z,33.83
2023-05-07T10:39:17.612Z,33.67
2023-05-07T10:40:22.262Z,33.82
2023-05-07T10:41:24.223Z,33.76
2023-05-07T10:42:26.290Z,33.46
2023-05-07T10:43:44.609Z,33.20
2023-05-07T10:44:46.816Z,33.58
2023-05-07T10:46:27.393Z,33.09
2023-05-07T10:47:29.354Z,33.54
2023-05-07T10:48:31.491Z,33.09
2023-05-07T10:49:33.404Z,33.63
2023-05-07T10:50:36.863Z,33.68
2023-05-07T10:51:39.611Z,32.82
2023-05-07T10:52:41.642Z,33.26
2023-05-07T10:53:43.599Z,33.39
2023-05-07T10:54:47.038Z,33.16
2023-05-07T10:55:52.599Z,32.93
2023-05-07T10:56:54.526Z,33.31
2023-05-07T10:57:56.397Z,32.93
2023-05-07T10:59:24.906Z,32.93
2023-05-07T11:00:39.141Z,33.46
2023-05-07T11:01:58.806Z,33.17
2023-05-07T11:03:01.450Z,33.34
2023-05-07T11:04:25.372Z,32.80
2023-05-07T11:05:30.239Z,33.36
2023-05-07T11:06:35.534Z,32.83
2023-05-07T11:07:37.613Z,33.28
2023-05-07T11:08:58.137Z,33.22
2023-05-07T11:10:05.915Z,33.02
2023-05-07T11:11:08.580Z,33.15
2023-05-07T11:12:10.626Z,32.98
2023-05-07T11:13:12.995Z,32.63
2023-05-07T11:14:45.901Z,32.50
2023-05-07T11:15:49.488Z,32.51
2023-05-07T11:17:04.254Z,32.64
2023-05-07T11:18:07.328Z,32.51
2023-05-07T11:19:09.216Z,32.99
2023-05-07T11:20:11.241Z,33.15
2023-05-07T11:21:13.601Z,32.90
2023-05-07T11:22:41.156Z,33.00
2023-05-07T11:23:42.988Z,32.99
2023-05-07T11:24:45.093Z,32.66
2023-05-07T11:25:47.377Z,33.01
2023-05-07T11:26:51.197Z,33.07
2023-05-07T11:27:53.932Z,33.15
2023-05-07T11:28:56.225Z,33.27
2023-05-07T11:29:58.228Z,33.28
2023-05-07T11:31:00.926Z,33.18
2023-05-07T11:32:04.350Z,33.01
2023-05-07T11:33:06.827Z,32.80
2023-05-07T11:34:10.813Z,32.74
2023-05-07T11:35:14.502Z,33.03
2023-05-07T11:36:17.057Z,33.19
2023-05-07T11:37:20.601Z,33.09
2023-05-07T11:38:22.938Z,33.17
2023-05-07T11:39:37.126Z,32.66
2023-05-07T11:40:57.508Z,32.86
2023-05-07T11:42:00.797Z,32.87
2023-05-07T11:43:12.229Z,32.96
2023-05-07T11:44:14.568Z,32.60
2023-05-07T11:45:28.030Z,33.00
2023-05-07T11:46:30.565Z,32.60
2023-05-07T11:47:33.365Z,32.50
2023-05-07T11:48:35.859Z,32.84
2023-05-07T11:49:37.758Z,32.49
2023-05-07T11:51:00.879Z,32.50
2023-05-07T11:52:04.365Z,32.42
2023-05-07T11:53:13.852Z,32.66
2023-05-07T11:54:19.081Z,32.61
2023-05-07T11:55:21.639Z,32.55
2023-05-07T11:56:24.217Z,32.72
2023-05-07T11:57:26.912Z,32.26
2023-05-07T11:58:28.759Z,32.55
2023-05-07T11:59:30.726Z,32.36
2023-05-07T12:00:32.849Z,32.79
2023-05-07T12:01:38.064Z,32.66
2023-05-07T12:02:40.409Z,32.14
2023-05-07T12:03:45.848Z,32.57
2023-05-07T12:04:47.835Z,32.50
2023-05-07T12:05:50.463Z,32.59
2023-05-07T12:06:56.828Z,32.29
2023-05-07T12:07:59.185Z,32.50
2023-05-07T12:09:02.175Z,32.09
2023-05-07T12:10:08.098Z,32.16
2023-05-07T12:11:18.485Z,32.47
2023-05-07T12:12:20.518Z,31.98
2023-05-07T12:13:27.094Z,32.56
2023-05-07T12:14:30.206Z,32.26
2023-05-07T12:15:32.080Z,32.42
2023-05-07T12:16:34.297Z,32.31
2023-05-07T12:17:36.401Z,32.40
2023-05-07T12:18:39.147Z,32.20
2023-05-07T12:19:44.176Z,31.98
2023-05-07T12:20:46.602Z,32.17
2023-05-07T12:21:49.143Z,32.39
2023-05-07T12:22:53.636Z,32.01
2023-05-07T12:23:56.064Z,32.59
2023-05-07T12:24:59.861Z,32.63
2023-05-07T12:26:02.242Z,32.38
2023-05-07T12:27:05.030Z,32.33
2023-05-07T12:28:09.159Z,32.29
2023-05-07T12:29:11.350Z,32.16
2023-05-07T12:30:14.110Z,32.43
2023-05-07T12:31:17.103Z,32.14
2023-05-07T12:32:21.964Z,31.94
2023-05-07T12:33:27.566Z,32.42
2023-05-07T12:34:29.539Z,32.20
2023-05-07T12:35:43.008Z,31.96
2023-05-07T12:36:44.910Z,32.04
2023-05-07T12:38:00.995Z,32.24
2023-05-07T12:39:02.902Z,32.00
2023-05-07T12:40:07.834Z,32.14
2023-05-07T12:41:13.413Z,31.92
2023-05-07T12:42:26.607Z,32.21
2023-05-07T12:43:30.407Z,31.82
2023-05-07T12:44:35.247Z,31.77
2023-05-07T12:45:40.325Z,32.28
2023-05-07T12:46:42.332Z,32.34
2023-05-07T12:47:48.435Z,31.97
2023-05-07T12:48:50.937Z,32.02
2023-05-07T12:49:52.856Z,32.11
2023-05-07T12:50:56.639Z,31.96
2023-05-07T12:51:59.647Z,31.77
2023-05-07T12:53:07.034Z,32.23
2023-05-07T12:54:09.040Z,31.80
2023-05-07T12:55:15.349Z,32.19
2023-05-07T12:56:17.745Z,32.02
2023-05-07T12:57:21.811Z,31.99
2023-05-07T12:58:31.768Z,32.05
2023-05-07T12:59:41.009Z,32.33
2023-05-07T13:00:44.392Z,32.05
2023-05-07T13:01:46.885Z,31.99
2023-05-07T13:02:49.160Z,31.88
2023-05-07T13:03:51.566Z,31.77
2023-05-07T13:04:54.216Z,32.08
2023-05-07T13:06:11.242Z,31.96
2023-05-07T13:07:13.443Z,31.97
2023-05-07T13:08:35.244Z,31.91
2023-05-07T13:09:38.225Z,31.80
2023-05-07T13:10:40.116Z,32.11
2023-05-07T13:11:42.487Z,31.82
2023-05-07T13:12:44.487Z,32.00
2023-05-07T13:13:46.371Z,32.23
2023-05-07T13:14:48.283Z,31.67
2023-05-07T13:15:50.398Z,31.89
2023-05-07T13:16:52.535Z,31.78
2023-05-07T13:17:54.455Z,31.86
2023-05-07T13:18:56.533Z,31.87
2023-05-07T13:19:58.414Z,31.90
2023-05-07T13:21:02.038Z,31.93
2023-05-07T13:22:04.467Z,31.88
2023-05-07T13:23:06.368Z,31.62
2023-05-07T13:24:08.942Z,31.85
2023-05-07T13:25:11.201Z,32.25
2023-05-07T13:26:25.670Z,32.03
2023-05-07T13:27:28.870Z,31.78
2023-05-07T13:28:31.459Z,32.03
2023-05-07T13:29:33.414Z,32.09
2023-05-07T13:30:35.860Z,31.89
2023-05-07T13:31:37.937Z,31.89
2023-05-07T13:32:39.938Z,32.28
2023-05-07T13:33:42.385Z,31.89
2023-05-07T13:34:44.507Z,31.99
2023-05-07T13:35:46.483Z,32.04
2023-05-07T13:36:48.683Z,32.20
2023-05-07T13:37:50.754Z,32.28